createdAt,value
2022-09-25T00:52:38.968Z,16.40
2022-09-25T00:55:04.905Z,16.43
2022-09-25T00:57:30.857Z,16.41
2022-09-25T00:59:56.779Z,16.45
2022-09-25T01:02:22.770Z,16.33
2022-09-25T01:04:48.806Z,16.23
2022-09-25T01:07:15.012Z,16.28
2022-09-25T01:09:41.019Z,16.29
2022-09-25T01:12:06.953Z,16.16
2022-09-25T01:14:32.907Z,16.14
2022-09-25T01:16:58.924Z,16.12
2022-09-25T01:19:24.932Z,16.07
2022-09-25T01:21:50.863Z,16.03
2022-09-25T01:24:16.830Z,16.02
2022-09-25T01:26:42.820Z,16.04
2022-09-25T01:29:09.505Z,15.86
2022-09-25T01:31:36.337Z,15.91
2022-09-25T01:34:02.294Z,16.02
2022-09-25T01:36:28.234Z,16.01
2022-09-25T01:38:54.192Z,15.90
2022-09-25T01:41:20.127Z,15.90
2022-09-25T01:43:46.056Z,15.83
2022-09-25T01:46:12.139Z,16.05
2022-09-25T01:48:38.189Z,16.13
2022-09-25T01:51:04.162Z,15.92
2022-09-25T01:53:30.840Z,15.93
2022-09-25T01:55:56.821Z,16.09
2022-09-25T01:58:22.747Z,16.09
2022-09-25T02:00:48.713Z,16.02
2022-09-25T02:03:14.674Z,16.07
2022-09-25T02:05:40.619Z,16.08
2022-09-25T02:08:06.574Z,16.06
2022-09-25T02:10:33.427Z,16.18
2022-09-25T02:12:59.370Z,16.27
2022-09-25T02:15:25.619Z,16.24
2022-09-25T02:17:52.286Z,16.19
2022-09-25T02:20:18.261Z,16.14
2022-09-25T02:22:44.241Z,16.20
2022-09-25T02:25:10.170Z,16.21
2022-09-25T02:27:36.145Z,16.17
2022-09-25T02:30:02.094Z,16.10
2022-09-25T02:32:28.053Z,16.07
2022-09-25T02:34:54.936Z,16.26
2022-09-25T02:37:20.882Z,16.32
2022-09-25T02:39:46.851Z,16.24
2022-09-25T02:42:15.100Z,16.38
2022-09-25T02:44:41.752Z,16.24
2022-09-25T02:47:07.698Z,16.30
2022-09-25T02:49:34.125Z,16.34
2022-09-25T02:52:00.113Z,16.48
2022-09-25T02:54:26.076Z,16.57
2022-09-25T02:56:52.942Z,16.67
2022-09-25T02:59:19.320Z,16.67
2022-09-25T03:01:45.316Z,16.63
2022-09-25T03:04:11.341Z,16.61
2022-09-25T03:06:38.015Z,16.59
2022-09-25T03:09:03.990Z,16.57
2022-09-25T03:11:29.927Z,16.59
2022-09-25T03:13:55.881Z,16.51
2022-09-25T03:16:21.879Z,16.59
2022-09-25T03:18:47.892Z,16.69
2022-09-25T03:21:14.813Z,16.71
2022-09-25T03:23:41.483Z,16.47
2022-09-25T03:26:07.442Z,16.55
2022-09-25T03:28:33.852Z,16.61
2022-09-25T03:31:01.598Z,16.65
2022-09-25T03:33:27.969Z,16.69
2022-09-25T03:35:54.238Z,16.71
2022-09-25T03:38:21.206Z,16.84
2022-09-25T05:47:57.902Z,17.30
2022-09-25T05:50:23.841Z,17.33
2022-09-25T05:52:49.822Z,17.33
2022-09-25T05:55:15.754Z,17.26
2022-09-25T05:57:42.615Z,17.23
2022-09-25T06:00:08.560Z,17.27
2022-09-25T06:02:34.592Z,17.35
2022-09-25T06:05:00.589Z,17.38
2022-09-25T06:07:26.557Z,17.38
2022-09-25T06:09:53.245Z,17.35
2022-09-25T06:12:19.272Z,17.32
2022-09-25T06:14:45.222Z,17.38
2022-09-25T06:17:11.198Z,17.32
2022-09-25T06:19:37.249Z,17.30
2022-09-25T06:22:03.182Z,17.32
2022-09-25T06:24:29.186Z,17.25
2022-09-25T06:26:55.144Z,17.32
2022-09-25T06:29:22.003Z,17.30
2022-09-25T06:31:47.958Z,17.29
2022-09-25T06:34:13.989Z,17.41
2022-09-25T06:36:39.926Z,17.34
2022-09-25T06:39:06.797Z,17.30
2022-09-25T06:41:32.825Z,17.37
2022-09-25T06:43:58.828Z,17.42
2022-09-25T06:46:24.826Z,17.34
2022-09-25T06:48:50.799Z,17.42
2022-09-25T06:51:17.544Z,17.54
2022-09-25T06:53:43.517Z,17.56
2022-09-25T06:56:09.469Z,17.64
2022-09-25T06:58:35.993Z,17.67
2022-09-25T07:01:06.286Z,17.62
2022-09-25T07:03:35.071Z,17.66
2022-09-25T07:06:01.888Z,17.65
2022-09-25T07:08:27.846Z,17.66
2022-09-25T07:10:53.822Z,17.54
2022-09-25T07:13:19.800Z,17.52
2022-09-25T07:15:46.559Z,17.56
2022-09-25T07:18:12.584Z,17.70
2022-09-25T07:20:38.561Z,17.72
2022-09-25T07:23:05.251Z,17.71
2022-09-25T07:25:31.212Z,17.54
2022-09-25T07:27:57.153Z,17.74
2022-09-25T07:30:23.134Z,17.89
2022-09-25T07:32:49.282Z,17.92
2022-09-25T07:35:15.253Z,17.91
2022-09-25T07:37:41.205Z,17.97
2022-09-25T07:40:07.208Z,17.91
2022-09-25T07:42:34.766Z,17.93
2022-09-25T07:45:00.708Z,17.78
2022-09-25T07:47:26.683Z,17.94
2022-09-25T07:49:52.653Z,17.97
2022-09-25T07:52:18.984Z,18.06
2022-09-25T07:54:45.892Z,18.05
2022-09-25T07:57:12.310Z,18.06
2022-09-25T07:59:38.314Z,18.11
2022-09-25T08:02:04.328Z,18.02
2022-09-25T08:04:30.313Z,18.14
2022-09-25T08:06:56.263Z,18.19
2022-09-25T08:09:22.271Z,18.14
2022-09-25T08:11:48.962Z,18.16
2022-09-25T08:14:14.941Z,18.15
2022-09-25T08:16:40.950Z,18.17
2022-09-25T08:19:07.482Z,18.17
2022-09-25T08:21:35.409Z,18.23
2022-09-25T08:24:01.634Z,18.24
2022-09-25T08:29:12.573Z,18.24
2022-09-25T08:31:40.320Z,18.26
2022-09-25T08:34:35.848Z,18.28
2022-09-25T10:46:40.728Z,20.27
2022-09-25T10:49:06.672Z,20.25
2022-09-25T10:51:32.619Z,20.19
2022-09-25T10:53:58.572Z,20.02
2022-09-25T10:56:24.558Z,19.97
2022-09-25T10:58:50.555Z,19.98
2022-09-25T11:01:16.641Z,20.03
2022-09-25T11:03:43.376Z,20.16
2022-09-25T11:06:09.378Z,20.29
2022-09-25T11:08:35.326Z,20.33
2022-09-25T11:11:01.265Z,20.24
2022-09-25T11:13:27.249Z,20.30
2022-09-25T11:15:53.239Z,20.53
2022-09-25T11:18:19.337Z,20.64
2022-09-25T11:20:45.302Z,20.78
2022-09-25T11:23:11.264Z,20.56
2022-09-25T11:25:37.974Z,20.50
2022-09-25T11:28:03.991Z,20.66
2022-09-25T11:30:30.685Z,20.78
2022-09-25T11:32:56.686Z,20.77
2022-09-25T11:35:22.685Z,21.00
2022-09-25T11:37:49.621Z,21.05
2022-09-25T11:40:15.633Z,20.87
2022-09-25T11:42:41.614Z,20.95
2022-09-25T11:45:07.612Z,20.57
2022-09-25T11:47:34.357Z,20.60
2022-09-25T11:50:00.390Z,20.64
2022-09-25T11:52:26.351Z,20.74
2022-09-25T11:54:52.303Z,20.70
2022-09-25T11:57:19.003Z,20.78
2022-09-25T11:59:45.000Z,20.82
2022-09-25T12:02:11.023Z,20.98
2022-09-25T12:04:41.356Z,21.02
2022-09-25T12:07:07.688Z,20.94
2022-09-25T12:09:33.659Z,20.91
2022-09-25T12:11:59.636Z,20.97
2022-09-25T12:14:25.586Z,21.23
2022-09-25T12:16:52.361Z,21.26
2022-09-25T12:19:19.270Z,21.19
2022-09-25T12:21:46.142Z,20.65
2022-09-25T12:24:12.194Z,20.85
2022-09-25T12:26:38.219Z,21.28
2022-09-25T12:29:04.184Z,21.65
2022-09-25T12:31:31.101Z,21.70
2022-09-25T12:33:57.072Z,21.78
2022-09-25T12:36:23.007Z,21.24
2022-09-25T12:38:49.030Z,21.39
2022-09-25T12:41:14.991Z,21.76
2022-09-25T12:43:41.705Z,21.85
2022-09-25T12:46:07.723Z,22.11
2022-09-25T12:48:33.711Z,21.78
2022-09-25T12:51:04.427Z,21.94
2022-09-25T12:53:31.434Z,22.03
2022-09-25T12:55:57.421Z,21.92
2022-09-25T12:58:23.368Z,21.30
2022-09-25T13:00:49.399Z,21.55
2022-09-25T13:03:15.395Z,21.75
2022-09-25T13:05:42.115Z,22.01
2022-09-25T13:08:08.278Z,21.80
2022-09-25T13:10:34.237Z,21.85
2022-09-25T13:13:02.588Z,22.23
2022-09-25T13:15:28.548Z,22.41
2022-09-25T13:17:55.078Z,22.62
2022-09-25T13:20:21.009Z,22.44
2022-09-25T13:22:47.078Z,22.13
2022-09-25T13:25:13.039Z,22.07
2022-09-25T13:27:39.629Z,22.18
2022-09-25T13:30:06.068Z,21.95
2022-09-25T13:32:33.820Z,22.26
2022-09-25T13:35:00.092Z,21.50
2022-09-25T13:37:27.603Z,20.89
2022-09-25T13:39:53.661Z,21.13
2022-09-25T15:47:31.382Z,20.75
2022-09-25T15:49:57.313Z,20.83
2022-09-25T15:52:23.286Z,20.43
2022-09-25T15:54:50.128Z,20.08
2022-09-25T15:57:16.126Z,19.88
2022-09-25T15:59:42.746Z,19.75
2022-09-25T16:02:08.793Z,19.75
2022-09-25T16:04:38.652Z,19.91
2022-09-25T16:07:05.017Z,20.00
2022-09-25T16:09:31.614Z,20.08
2022-09-25T16:11:57.553Z,20.25
2022-09-25T16:14:23.528Z,20.44
2022-09-25T16:16:49.504Z,20.40
2022-09-25T16:19:15.443Z,20.26
2022-09-25T16:21:41.408Z,20.02
2022-09-25T16:24:07.939Z,19.49
2022-09-25T16:26:33.930Z,19.00
2022-09-25T16:28:59.900Z,19.18
2022-09-25T16:31:25.965Z,18.71
2022-09-25T16:33:52.019Z,18.80
2022-09-25T16:36:18.904Z,19.40
2022-09-25T16:38:44.909Z,19.62
2022-09-25T16:41:10.868Z,19.61
2022-09-25T16:43:36.855Z,19.55
2022-09-25T16:46:02.853Z,19.52
2022-09-25T16:48:28.869Z,19.18
2022-09-25T16:50:54.836Z,19.25
2022-09-25T16:53:21.495Z,19.68
2022-09-25T16:55:47.667Z,19.70
2022-09-25T16:58:13.687Z,19.51
2022-09-25T17:00:40.990Z,19.29
2022-09-25T17:03:07.067Z,19.28
2022-09-25T17:05:33.051Z,19.17
2022-09-25T17:07:59.925Z,19.16
2022-09-25T17:10:25.909Z,19.10
2022-09-25T17:12:53.890Z,19.21
2022-09-25T17:15:20.122Z,19.18
2022-09-25T17:17:46.112Z,19.35
2022-09-25T17:20:12.077Z,19.24
2022-09-25T17:22:38.107Z,19.23
2022-09-25T17:25:06.594Z,19.09
2022-09-25T17:27:32.554Z,19.14
2022-09-25T17:29:59.231Z,19.34
2022-09-25T17:32:25.163Z,19.16
2022-09-25T17:34:51.154Z,19.09
2022-09-25T17:37:17.086Z,18.98
2022-09-25T17:39:43.862Z,19.26
2022-09-25T17:42:09.810Z,19.35
2022-09-25T17:44:35.782Z,19.25
2022-09-25T17:47:02.570Z,19.37
2022-09-25T17:49:28.548Z,19.48
2022-09-25T17:51:54.517Z,19.65
2022-09-25T17:54:21.001Z,19.53
2022-09-25T17:56:47.002Z,19.30
2022-09-25T17:59:12.987Z,19.07
2022-09-25T18:01:39.896Z,19.04
2022-09-25T18:04:06.911Z,18.76
2022-09-25T18:06:32.880Z,18.58
2022-09-25T18:08:58.862Z,18.50
2022-09-25T18:11:25.378Z,18.52
2022-09-25T18:13:51.652Z,18.65
2022-09-25T18:16:17.978Z,18.83
2022-09-25T18:18:44.616Z,19.03
2022-09-25T18:21:11.214Z,19.31
2022-09-25T18:23:37.473Z,19.45
2022-09-25T18:26:05.079Z,19.63
2022-09-25T18:28:31.325Z,19.81
2022-09-25T18:30:57.656Z,19.95
2022-09-25T18:33:23.936Z,19.86
2022-09-25T18:35:50.207Z,19.93
2022-09-25T18:38:16.555Z,19.90
2022-09-25T18:40:43.603Z,19.85
2022-09-25T20:39:27.136Z,19.85
2022-09-25T20:41:53.705Z,19.82
2022-09-25T20:44:28.296Z,19.82
2022-09-25T20:46:54.932Z,19.66
2022-09-25T20:49:20.910Z,19.60
2022-09-25T20:51:46.897Z,19.56
2022-09-25T20:54:13.285Z,19.37
2022-09-25T20:56:40.271Z,19.36
2022-09-25T20:59:06.948Z,19.45
2022-09-25T21:01:33.041Z,19.42
2022-09-25T21:03:59.130Z,19.41
2022-09-25T21:06:25.670Z,19.41
2022-09-25T21:08:51.642Z,19.33
2022-09-25T21:11:17.593Z,19.32
2022-09-25T21:13:43.578Z,19.33
2022-09-25T21:16:11.831Z,19.38
2022-09-25T21:18:37.763Z,19.36
2022-09-25T21:21:04.466Z,19.29
2022-09-25T21:23:30.427Z,19.34
2022-09-25T21:25:56.378Z,19.40
2022-09-25T21:28:22.348Z,19.33
2022-09-25T21:30:48.322Z,19.33
2022-09-25T21:33:14.322Z,19.20
2022-09-25T21:35:41.029Z,19.24
2022-09-25T21:38:08.028Z,19.27
2022-09-25T21:40:34.022Z,19.27
2022-09-25T21:43:00.829Z,19.28
2022-09-25T21:45:26.793Z,19.31
2022-09-25T21:47:52.780Z,19.25
2022-09-25T21:50:18.702Z,19.33
2022-09-25T21:52:45.759Z,19.30
2022-09-25T21:55:11.692Z,19.30
2022-09-25T21:57:37.884Z,19.17
2022-09-25T22:00:03.865Z,19.03
2022-09-25T22:02:30.841Z,19.02
2022-09-25T22:04:56.883Z,19.08
2022-09-25T22:07:22.880Z,19.10
2022-09-25T22:09:49.588Z,19.06
2022-09-25T22:12:15.540Z,19.04
2022-09-25T22:14:41.525Z,19.09
2022-09-25T22:17:07.533Z,19.08
2022-09-25T22:19:33.558Z,19.09
2022-09-25T22:22:00.273Z,19.15
2022-09-25T22:24:26.244Z,19.17
2022-09-25T22:26:52.189Z,19.19
2022-09-25T22:29:18.124Z,19.13
2022-09-25T22:31:44.151Z,19.05
2022-09-25T22:34:11.133Z,19.07
2022-09-25T22:36:37.073Z,19.08
2022-09-25T22:39:03.025Z,19.13
2022-09-25T22:41:29.748Z,19.13
2022-09-25T22:43:56.891Z,19.15
2022-09-25T22:46:24.435Z,19.07
2022-09-25T22:48:50.439Z,18.96
2022-09-25T22:51:17.356Z,18.86
2022-09-25T22:53:43.329Z,18.78
2022-09-25T22:56:09.273Z,18.60
2022-09-25T22:58:36.172Z,18.72
2022-09-25T23:01:02.167Z,18.84
2022-09-25T23:03:28.195Z,18.92
2022-09-25T23:05:54.131Z,18.96
2022-09-25T23:08:20.129Z,19.10
2022-09-25T23:11:06.205Z,18.90
2022-09-25T23:13:33.550Z,18.93
2022-09-25T23:15:59.528Z,18.97
2022-09-25T23:18:25.751Z,18.81
2022-09-25T23:20:53.476Z,18.73
2022-09-25T23:23:19.565Z,18.78
2022-09-25T23:25:45.939Z,18.74
2022-09-25T23:28:13.528Z,18.76
2022-09-25T23:30:40.030Z,18.81
2022-09-25T23:33:06.222Z,18.82
